sensor_id;sensor_type;location;lat;lon;timestamp;P1;durP1;ratioP1;P2;durP2;ratioP2
13457;SDS011;6801;53.018;11.560;2023-07-28T00:02:06;1.33;;;0.40;;
13457;SDS011;6801;53.018;11.560;2023-07-28T00:04:35;0.40;;;0.40;;
13457;SDS011;6801;53.018;11.560;2023-07-28T00:07:02;0.98;;;0.60;;
13457;SDS011;6801;53.018;11.560;2023-07-28T00:09:29;2.28;;;0.75;;
13457;SDS011;6801;53.018;11.560;2023-07-28T00:11:57;1.55;;;0.60;;
13457;SDS011;6801;53.018;11.560;2023-07-28T00:14:24;3.38;;;1.30;;
13457;SDS011;6801;53.018;11.560;2023-07-28T00:16:51;0.75;;;0.40;;
13457;SDS011;6801;53.018;11.560;2023-07-28T00:19:19;0.70;;;0.50;;
13457;SDS011;6801;53.018;11.560;2023-07-28T00:21:48;0.75;;;0.30;;
13457;SDS011;6801;53.018;11.560;2023-07-28T00:24:17;0.52;;;0.30;;
13457;SDS011;6801;53.018;11.560;2023-07-28T00:26:44;1.80;;;0.45;;
13457;SDS011;6801;53.018;11.560;2023-07-28T00:29:11;1.08;;;0.30;;
13457;SDS011;6801;53.018;11.560;2023-07-28T00:31:38;1.27;;;0.40;;
13457;SDS011;6801;53.018;11.560;2023-07-28T00:34:07;2.17;;;0.52;;
13457;SDS011;6801;53.018;11.560;2023-07-28T00:36:34;1.17;;;0.40;;
13457;SDS011;6801;53.018;11.560;2023-07-28T00:39:02;1.30;;;0.38;;
13457;SDS011;6801;53.018;11.560;2023-07-28T00:41:29;0.30;;;0.30;;
13457;SDS011;6801;53.018;11.560;2023-07-28T00:43:56;1.85;;;0.45;;
13457;SDS011;6801;53.018;11.560;2023-07-28T00:46:23;0.55;;;0.30;;
13457;SDS011;6801;53.018;11.560;2023-07-28T00:48:51;1.00;;;0.30;;
13457;SDS011;6801;53.018;11.560;2023-07-28T00:51:18;3.47;;;0.40;;
13457;SDS011;6801;53.018;11.560;2023-07-28T00:53:46;0.68;;;0.40;;
13457;SDS011;6801;53.018;11.560;2023-07-28T00:56:14;0.40;;;0.38;;
13457;SDS011;6801;53.018;11.560;2023-07-28T00:58:41;0.63;;;0.35;;
13457;SDS011;6801;53.018;11.560;2023-07-28T01:01:08;1.27;;;0.30;;
13457;SDS011;6801;53.018;11.560;2023-07-28T01:03:36;1.98;;;0.50;;
13457;SDS011;6801;53.018;11.560;2023-07-28T01:06:08;1.48;;;0.50;;
13457;SDS011;6801;53.018;11.560;2023-07-28T01:08:42;1.08;;;0.47;;
13457;SDS011;6801;53.018;11.560;2023-07-28T01:11:17;1.08;;;0.30;;
13457;SDS011;6801;53.018;11.560;2023-07-28T01:13:44;0.40;;;0.32;;
13457;SDS011;6801;53.018;11.560;2023-07-28T01:16:12;0.45;;;0.30;;
13457;SDS011;6801;53.018;11.560;2023-07-28T01:18:39;0.40;;;0.35;;
13457;SDS011;6801;53.018;11.560;2023-07-28T01:21:08;0.70;;;0.25;;
13457;SDS011;6801;53.018;11.560;2023-07-28T01:23:41;0.50;;;0.30;;
13457;SDS011;6801;53.018;11.560;2023-07-28T01:28:53;0.32;;;0.30;;
13457;SDS011;6801;53.018;11.560;2023-07-28T01:31:20;1.23;;;0.28;;
13457;SDS011;6801;53.018;11.560;2023-07-28T01:33:47;1.30;;;0.40;;
13457;SDS011;6801;53.018;11.560;2023-07-28T01:36:14;0.77;;;0.30;;
13457;SDS011;6801;53.018;11.560;2023-07-28T01:38:41;0.40;;;0.40;;
13457;SDS011;6801;53.018;11.560;2023-07-28T01:41:08;0.60;;;0.40;;
13457;SDS011;6801;53.018;11.560;2023-07-28T01:43:36;0.35;;;0.30;;
13457;SDS011;6801;53.018;11.560;2023-07-28T01:46:03;0.43;;;0.30;;
13457;SDS011;6801;53.018;11.560;2023-07-28T01:48:30;1.40;;;0.40;;
13457;SDS011;6801;53.018;11.560;2023-07-28T01:50:58;1.20;;;0.45;;
13457;SDS011;6801;53.018;11.560;2023-07-28T01:53:25;0.35;;;0.22;;
13457;SDS011;6801;53.018;11.560;2023-07-28T01:55:52;0.55;;;0.40;;
13457;SDS011;6801;53.018;11.560;2023-07-28T01:58:19;0.70;;;0.40;;
13457;SDS011;6801;53.018;11.560;2023-07-28T02:00:47;1.55;;;0.50;;
13457;SDS011;6801;53.018;11.560;2023-07-28T02:03:14;0.60;;;0.50;;
13457;SDS011;6801;53.018;11.560;2023-07-28T02:05:41;0.40;;;0.40;;
13457;SDS011;6801;53.018;11.560;2023-07-28T02:08:09;1.15;;;0.35;;
13457;SDS011;6801;53.018;11.560;2023-07-28T02:10:36;0.82;;;0.50;;
13457;SDS011;6801;53.018;11.560;2023-07-28T02:13:04;0.82;;;0.50;;
13457;SDS011;6801;53.018;11.560;2023-07-28T02:15:31;1.95;;;0.57;;
13457;SDS011;6801;53.018;11.560;2023-07-28T02:17:59;1.02;;;0.50;;
13457;SDS011;6801;53.018;11.560;2023-07-28T02:20:26;1.88;;;0.45;;
13457;SDS011;6801;53.018;11.560;2023-07-28T02:22:53;1.00;;;0.47;;
13457;SDS011;6801;53.018;11.560;2023-07-28T02:25:21;0.55;;;0.45;;
13457;SDS011;6801;53.018;11.560;2023-07-28T02:27:48;0.93;;;0.50;;
13457;SDS011;6801;53.018;11.560;2023-07-28T02:30:16;1.13;;;0.30;;
13457;SDS011;6801;53.018;11.560;2023-07-28T02:32:43;1.05;;;0.50;;
13457;SDS011;6801;53.018;11.560;2023-07-28T02:35:11;0.55;;;0.35;;
13457;SDS011;6801;53.018;11.560;2023-07-28T02:37:38;3.15;;;0.90;;
13457;SDS011;6801;53.018;11.560;2023-07-28T02:40:07;1.52;;;0.45;;
13457;SDS011;6801;53.018;11.560;2023-07-28T02:42:34;1.42;;;0.55;;
13457;SDS011;6801;53.018;11.560;2023-07-28T02:45:01;0.40;;;0.32;;
13457;SDS011;6801;53.018;11.560;2023-07-28T02:47:28;0.60;;;0.40;;
13457;SDS011;6801;53.018;11.560;2023-07-28T02:49:55;4.05;;;0.40;;
13457;SDS011;6801;53.018;11.560;2023-07-28T02:52:24;0.47;;;0.45;;
13457;SDS011;6801;53.018;11.560;2023-07-28T02:54:51;1.20;;;0.55;;
13457;SDS011;6801;53.018;11.560;2023-07-28T02:57:18;0.60;;;0.40;;
13457;SDS011;6801;53.018;11.560;2023-07-28T02:59:47;1.83;;;0.70;;
13457;SDS011;6801;53.018;11.560;2023-07-28T03:02:14;2.20;;;0.50;;
13457;SDS011;6801;53.018;11.560;2023-07-28T03:04:41;1.75;;;0.50;;
13457;SDS011;6801;53.018;11.560;2023-07-28T03:07:28;0.75;;;0.40;;
13457;SDS011;6801;53.018;11.560;2023-07-28T03:10:00;0.60;;;0.30;;
13457;SDS011;6801;53.018;11.560;2023-07-28T03:12:29;1.25;;;0.40;;
13457;SDS011;6801;53.018;11.560;2023-07-28T03:14:56;4.63;;;0.40;;
13457;SDS011;6801;53.018;11.560;2023-07-28T03:17:23;1.40;;;0.40;;
13457;SDS011;6801;53.018;11.560;2023-07-28T03:19:50;1.40;;;0.63;;
13457;SDS011;6801;53.018;11.560;2023-07-28T03:22:17;0.50;;;0.40;;
13457;SDS011;6801;53.018;11.560;2023-07-28T03:24:45;0.50;;;0.40;;
13457;SDS011;6801;53.018;11.560;2023-07-28T03:27:12;4.05;;;0.30;;
13457;SDS011;6801;53.018;11.560;2023-07-28T03:29:40;0.40;;;0.30;;
13457;SDS011;6801;53.018;11.560;2023-07-28T03:32:07;0.30;;;0.22;;
13457;SDS011;6801;53.018;11.560;2023-07-28T03:34:34;0.93;;;0.30;;
13457;SDS011;6801;53.018;11.560;2023-07-28T03:37:03;2.27;;;0.30;;
13457;SDS011;6801;53.018;11.560;2023-07-28T03:39:31;0.50;;;0.20;;
13457;SDS011;6801;53.018;11.560;2023-07-28T03:41:59;0.50;;;0.40;;
13457;SDS011;6801;53.018;11.560;2023-07-28T03:44:28;0.50;;;0.30;;
13457;SDS011;6801;53.018;11.560;2023-07-28T03:46:55;0.90;;;0.30;;
13457;SDS011;6801;53.018;11.560;2023-07-28T03:49:22;0.82;;;0.30;;
13457;SDS011;6801;53.018;11.560;2023-07-28T03:51:49;3.08;;;0.57;;
13457;SDS011;6801;53.018;11.560;2023-07-28T03:54:16;0.47;;;0.47;;
13457;SDS011;6801;53.018;11.560;2023-07-28T03:56:43;1.73;;;0.50;;
13457;SDS011;6801;53.018;11.560;2023-07-28T03:59:11;1.83;;;0.32;;
13457;SDS011;6801;53.018;11.560;2023-07-28T04:01:38;2.30;;;0.40;;
13457;SDS011;6801;53.018;11.560;2023-07-28T04:04:06;2.47;;;0.30;;
13457;SDS011;6801;53.018;11.560;2023-07-28T04:06:40;1.88;;;0.30;;
13457;SDS011;6801;53.018;11.560;2023-07-28T04:09:08;1.33;;;0.50;;
13457;SDS011;6801;53.018;11.560;2023-07-28T04:11:36;0.82;;;0.30;;
13457;SDS011;6801;53.018;11.560;2023-07-28T04:14:02;0.73;;;0.30;;
13457;SDS011;6801;53.018;11.560;2023-07-28T04:16:31;2.10;;;0.45;;
13457;SDS011;6801;53.018;11.560;2023-07-28T04:18:59;2.67;;;0.32;;
13457;SDS011;6801;53.018;11.560;2023-07-28T04:21:26;0.70;;;0.40;;
13457;SDS011;6801;53.018;11.560;2023-07-28T04:23:53;0.30;;;0.20;;
13457;SDS011;6801;53.018;11.560;2023-07-28T04:26:20;4.03;;;0.20;;
13457;SDS011;6801;53.018;11.560;2023-07-28T04:28:53;0.80;;;0.30;;
13457;SDS011;6801;53.018;11.560;2023-07-28T04:31:20;0.30;;;0.20;;
13457;SDS011;6801;53.018;11.560;2023-07-28T04:33:54;0.20;;;0.10;;
13457;SDS011;6801;53.018;11.560;2023-07-28T04:36:23;0.88;;;0.30;;
13457;SDS011;6801;53.018;11.560;2023-07-28T04:38:50;0.30;;;0.20;;
13457;SDS011;6801;53.018;11.560;2023-07-28T04:41:17;0.10;;;0.10;;
13457;SDS011;6801;53.018;11.560;2023-07-28T04:43:50;0.68;;;0.25;;
13457;SDS011;6801;53.018;11.560;2023-07-28T04:46:18;0.45;;;0.17;;
13457;SDS011;6801;53.018;11.560;2023-07-28T04:48:50;0.40;;;0.20;;
13457;SDS011;6801;53.018;11.560;2023-07-28T04:51:57;1.25;;;0.40;;
13457;SDS011;6801;53.018;11.560;2023-07-28T04:54:27;0.38;;;0.30;;
13457;SDS011;6801;53.018;11.560;2023-07-28T04:56:54;0.82;;;0.40;;
13457;SDS011;6801;53.018;11.560;2023-07-28T04:59:28;1.33;;;0.50;;
13457;SDS011;6801;53.018;11.560;2023-07-28T05:01:55;2.78;;;0.52;;
13457;SDS011;6801;53.018;11.560;2023-07-28T05:04:22;0.52;;;0.47;;
13457;SDS011;6801;53.018;11.560;2023-07-28T05:06:49;0.75;;;0.45;;
13457;SDS011;6801;53.018;11.560;2023-07-28T05:09:17;0.80;;;0.60;;
13457;SDS011;6801;53.018;11.560;2023-07-28T05:11:44;1.40;;;0.40;;
13457;SDS011;6801;53.018;11.560;2023-07-28T05:14:11;3.55;;;0.40;;
13457;SDS011;6801;53.018;11.560;2023-07-28T05:16:39;1.95;;;0.50;;
13457;SDS011;6801;53.018;11.560;2023-07-28T05:19:09;1.67;;;0.40;;
13457;SDS011;6801;53.018;11.560;2023-07-28T05:21:54;1.42;;;0.50;;
13457;SDS011;6801;53.018;11.560;2023-07-28T05:24:34;1.30;;;0.60;;
13457;SDS011;6801;53.018;11.560;2023-07-28T05:27:02;3.38;;;0.60;;
13457;SDS011;6801;53.018;11.560;2023-07-28T05:29:29;0.85;;;0.52;;
13457;SDS011;6801;53.018;11.560;2023-07-28T05:32:01;2.35;;;0.75;;
13457;SDS011;6801;53.018;11.560;2023-07-28T05:34:41;1.20;;;0.80;;
13457;SDS011;6801;53.018;11.560;2023-07-28T05:37:09;2.95;;;0.80;;
13457;SDS011;6801;53.018;11.560;2023-07-28T05:39:38;1.60;;;0.70;;
13457;SDS011;6801;53.018;11.560;2023-07-28T05:42:06;2.05;;;0.80;;
13457;SDS011;6801;53.018;11.560;2023-07-28T05:44:33;2.85;;;1.00;;
13457;SDS011;6801;53.018;11.560;2023-07-28T05:47:00;2.63;;;0.80;;
13457;SDS011;6801;53.018;11.560;2023-07-28T05:49:28;1.40;;;0.70;;
13457;SDS011;6801;53.018;11.560;2023-07-28T05:51:55;2.10;;;1.35;;
13457;SDS011;6801;53.018;11.560;2023-07-28T05:54:23;0.73;;;0.60;;
13457;SDS011;6801;53.018;11.560;2023-07-28T05:56:51;3.17;;;1.10;;
13457;SDS011;6801;53.018;11.560;2023-07-28T05:59:18;1.52;;;1.10;;
13457;SDS011;6801;53.018;11.560;2023-07-28T06:01:45;2.10;;;1.20;;
13457;SDS011;6801;53.018;11.560;2023-07-28T06:04:15;2.83;;;0.93;;
13457;SDS011;6801;53.018;11.560;2023-07-28T06:06:46;4.53;;;1.13;;
13457;SDS011;6801;53.018;11.560;2023-07-28T06:09:15;2.65;;;0.90;;
13457;SDS011;6801;53.018;11.560;2023-07-28T06:11:43;2.90;;;1.20;;
13457;SDS011;6801;53.018;11.560;2023-07-28T06:14:12;3.80;;;1.20;;
13457;SDS011;6801;53.018;11.560;2023-07-28T06:16:39;2.53;;;1.30;;
13457;SDS011;6801;53.018;11.560;2023-07-28T06:19:06;2.53;;;1.60;;
13457;SDS011;6801;53.018;11.560;2023-07-28T06:21:35;1.50;;;1.30;;
13457;SDS011;6801;53.018;11.560;2023-07-28T06:24:02;2.35;;;1.23;;
13457;SDS011;6801;53.018;11.560;2023-07-28T06:26:29;2.30;;;1.58;;
13457;SDS011;6801;53.018;11.560;2023-07-28T06:28:57;2.70;;;1.08;;
13457;SDS011;6801;53.018;11.560;2023-07-28T06:31:26;3.95;;;1.55;;
13457;SDS011;6801;53.018;11.560;2023-07-28T06:33:53;1.55;;;1.23;;
13457;SDS011;6801;53.018;11.560;2023-07-28T06:36:20;3.63;;;1.35;;
13457;SDS011;6801;53.018;11.560;2023-07-28T06:38:47;2.58;;;1.80;;
13457;SDS011;6801;53.018;11.560;2023-07-28T06:41:15;3.42;;;1.70;;
13457;SDS011;6801;53.018;11.560;2023-07-28T06:43:44;2.47;;;1.48;;
13457;SDS011;6801;53.018;11.560;2023-07-28T06:46:11;2.55;;;1.10;;
13457;SDS011;6801;53.018;11.560;2023-07-28T06:48:40;3.60;;;1.55;;
13457;SDS011;6801;53.018;11.560;2023-07-28T06:51:08;2.00;;;1.20;;
13457;SDS011;6801;53.018;11.560;2023-07-28T06:53:35;2.63;;;1.45;;
13457;SDS011;6801;53.018;11.560;2023-07-28T06:56:02;1.77;;;1.20;;
13457;SDS011;6801;53.018;11.560;2023-07-28T06:58:29;2.13;;;1.08;;
13457;SDS011;6801;53.018;11.560;2023-07-28T07:00:56;1.92;;;1.50;;
13457;SDS011;6801;53.018;11.560;2023-07-28T07:03:23;2.25;;;1.33;;
13457;SDS011;6801;53.018;11.560;2023-07-28T07:05:52;2.92;;;1.10;;
13457;SDS011;6801;53.018;11.560;2023-07-28T07:08:19;2.45;;;1.48;;
13457;SDS011;6801;53.018;11.560;2023-07-28T07:10:47;2.10;;;1.30;;
13457;SDS011;6801;53.018;11.560;2023-07-28T07:13:15;2.05;;;1.17;;
13457;SDS011;6801;53.018;11.560;2023-07-28T07:15:43;1.63;;;1.05;;
13457;SDS011;6801;53.018;11.560;2023-07-28T07:18:10;1.90;;;1.30;;
13457;SDS011;6801;53.018;11.560;2023-07-28T07:20:38;1.65;;;1.45;;
13457;SDS011;6801;53.018;11.560;2023-07-28T07:23:06;1.23;;;0.95;;
13457;SDS011;6801;53.018;11.560;2023-07-28T07:25:33;1.30;;;0.80;;
13457;SDS011;6801;53.018;11.560;2023-07-28T07:28:03;1.77;;;0.68;;
13457;SDS011;6801;53.018;11.560;2023-07-28T07:30:32;0.98;;;0.75;;
13457;SDS011;6801;53.018;11.560;2023-07-28T07:33:00;2.13;;;0.57;;
13457;SDS011;6801;53.018;11.560;2023-07-28T07:35:27;0.82;;;0.40;;
13457;SDS011;6801;53.018;11.560;2023-07-28T07:37:55;1.10;;;0.47;;
13457;SDS011;6801;53.018;11.560;2023-07-28T07:40:24;1.98;;;0.50;;
13457;SDS011;6801;53.018;11.560;2023-07-28T07:42:51;0.32;;;0.20;;
13457;SDS011;6801;53.018;11.560;2023-07-28T07:45:18;0.60;;;0.30;;
13457;SDS011;6801;53.018;11.560;2023-07-28T07:47:46;1.67;;;0.40;;
13457;SDS011;6801;53.018;11.560;2023-07-28T07:50:13;1.33;;;0.40;;
13457;SDS011;6801;53.018;11.560;2023-07-28T07:52:40;1.27;;;0.30;;
13457;SDS011;6801;53.018;11.560;2023-07-28T07:55:08;0.25;;;0.20;;
13457;SDS011;6801;53.018;11.560;2023-07-28T07:57:37;0.88;;;0.40;;
13457;SDS011;6801;53.018;11.560;2023-07-28T08:00:05;0.63;;;0.45;;
13457;SDS011;6801;53.018;11.560;2023-07-28T08:02:44;0.55;;;0.40;;
13457;SDS011;6801;53.018;11.560;2023-07-28T08:05:13;0.70;;;0.60;;
13457;SDS011;6801;53.018;11.560;2023-07-28T08:07:41;0.45;;;0.40;;
13457;SDS011;6801;53.018;11.560;2023-07-28T08:10:09;0.65;;;0.60;;
13457;SDS011;6801;53.018;11.560;2023-07-28T08:12:38;0.98;;;0.55;;
13457;SDS011;6801;53.018;11.560;2023-07-28T08:15:07;0.57;;;0.50;;
13457;SDS011;6801;53.018;11.560;2023-07-28T08:17:34;0.60;;;0.50;;
13457;SDS011;6801;53.018;11.560;2023-07-28T08:20:02;0.85;;;0.80;;
13457;SDS011;6801;53.018;11.560;2023-07-28T08:22:29;1.10;;;1.00;;
13457;SDS011;6801;53.018;11.560;2023-07-28T08:24:57;1.42;;;0.60;;
13457;SDS011;6801;53.018;11.560;2023-07-28T08:27:24;0.50;;;0.50;;
13457;SDS011;6801;53.018;11.560;2023-07-28T08:29:53;0.70;;;0.60;;
13457;SDS011;6801;53.018;11.560;2023-07-28T08:32:20;0.60;;;0.45;;
13457;SDS011;6801;53.018;11.560;2023-07-28T08:34:47;0.60;;;0.35;;
13457;SDS011;6801;53.018;11.560;2023-07-28T08:37:14;2.30;;;1.00;;
13457;SDS011;6801;53.018;11.560;2023-07-28T08:39:41;0.68;;;0.30;;
13457;SDS011;6801;53.018;11.560;2023-07-28T08:42:08;4.15;;;0.55;;
13457;SDS011;6801;53.018;11.560;2023-07-28T08:44:35;1.05;;;0.50;;
13457;SDS011;6801;53.018;11.560;2023-07-28T08:47:04;0.85;;;0.77;;
13457;SDS011;6801;53.018;11.560;2023-07-28T08:49:31;0.50;;;0.40;;
13457;SDS011;6801;53.018;11.560;2023-07-28T08:52:01;0.60;;;0.40;;
13457;SDS011;6801;53.018;11.560;2023-07-28T08:54:29;0.80;;;0.43;;
13457;SDS011;6801;53.018;11.560;2023-07-28T08:56:57;1.98;;;0.57;;
13457;SDS011;6801;53.018;11.560;2023-07-28T08:59:24;1.05;;;0.50;;
13457;SDS011;6801;53.018;11.560;2023-07-28T09:01:52;0.47;;;0.45;;
13457;SDS011;6801;53.018;11.560;2023-07-28T09:04:21;1.38;;;0.63;;
13457;SDS011;6801;53.018;11.560;2023-07-28T09:06:49;1.55;;;0.55;;
13457;SDS011;6801;53.018;11.560;2023-07-28T09:09:18;2.15;;;0.68;;
13457;SDS011;6801;53.018;11.560;2023-07-28T09:11:48;0.98;;;0.50;;
13457;SDS011;6801;53.018;11.560;2023-07-28T09:14:16;3.00;;;0.70;;
13457;SDS011;6801;53.018;11.560;2023-07-28T09:16:44;0.98;;;0.88;;
13457;SDS011;6801;53.018;11.560;2023-07-28T09:19:11;0.73;;;0.50;;
13457;SDS011;6801;53.018;11.560;2023-07-28T09:21:42;0.60;;;0.55;;
13457;SDS011;6801;53.018;11.560;2023-07-28T09:24:11;0.55;;;0.50;;
13457;SDS011;6801;53.018;11.560;2023-07-28T09:26:39;1.75;;;0.60;;
13457;SDS011;6801;53.018;11.560;2023-07-28T09:29:11;2.15;;;0.57;;
13457;SDS011;6801;53.018;11.560;2023-07-28T09:31:39;0.88;;;0.63;;
13457;SDS011;6801;53.018;11.560;2023-07-28T09:34:07;0.77;;;0.60;;
13457;SDS011;6801;53.018;11.560;2023-07-28T09:36:34;0.98;;;0.60;;
13457;SDS011;6801;53.018;11.560;2023-07-28T09:39:04;0.40;;;0.40;;
13457;SDS011;6801;53.018;11.560;2023-07-28T09:41:34;0.90;;;0.50;;
13457;SDS011;6801;53.018;11.560;2023-07-28T09:44:03;0.40;;;0.35;;
13457;SDS011;6801;53.018;11.560;2023-07-28T09:46:32;0.40;;;0.40;;
13457;SDS011;6801;53.018;11.560;2023-07-28T09:49:03;0.30;;;0.30;;
13457;SDS011;6801;53.018;11.560;2023-07-28T09:51:31;0.40;;;0.40;;
13457;SDS011;6801;53.018;11.560;2023-07-28T09:56:31;1.38;;;0.80;;
13457;SDS011;6801;53.018;11.560;2023-07-28T09:59:00;0.50;;;0.30;;
13457;SDS011;6801;53.018;11.560;2023-07-28T10:01:30;0.32;;;0.30;;
13457;SDS011;6801;53.018;11.560;2023-07-28T10:03:57;0.43;;;0.43;;
13457;SDS011;6801;53.018;11.560;2023-07-28T10:06:25;2.83;;;0.52;;
13457;SDS011;6801;53.018;11.560;2023-07-28T10:08:52;0.55;;;0.38;;
13457;SDS011;6801;53.018;11.560;2023-07-28T10:11:20;1.50;;;0.40;;
13457;SDS011;6801;53.018;11.560;2023-07-28T10:13:50;0.70;;;0.50;;
13457;SDS011;6801;53.018;11.560;2023-07-28T10:16:20;2.78;;;0.60;;
13457;SDS011;6801;53.018;11.560;2023-07-28T10:18:58;1.95;;;0.60;;
13457;SDS011;6801;53.018;11.560;2023-07-28T10:21:27;2.35;;;0.70;;
13457;SDS011;6801;53.018;11.560;2023-07-28T10:23:54;0.60;;;0.43;;
13457;SDS011;6801;53.018;11.560;2023-07-28T10:26:34;1.65;;;0.70;;
13457;SDS011;6801;53.018;11.560;2023-07-28T10:29:10;4.60;;;0.70;;
13457;SDS011;6801;53.018;11.560;2023-07-28T10:31:48;1.00;;;0.52;;
13457;SDS011;6801;53.018;11.560;2023-07-28T10:34:16;0.35;;;0.30;;
13457;SDS011;6801;53.018;11.560;2023-07-28T10:36:44;0.82;;;0.40;;
13457;SDS011;6801;53.018;11.560;2023-07-28T10:39:12;0.73;;;0.50;;
13457;SDS011;6801;53.018;11.560;2023-07-28T10:41:54;0.60;;;0.30;;
13457;SDS011;6801;53.018;11.560;2023-07-28T10:44:29;0.43;;;0.35;;
13457;SDS011;6801;53.018;11.560;2023-07-28T10:46:57;1.27;;;0.52;;
13457;SDS011;6801;53.018;11.560;2023-07-28T10:49:24;0.90;;;0.30;;
13457;SDS011;6801;53.018;11.560;2023-07-28T10:51:52;0.50;;;0.30;;
13457;SDS011;6801;53.018;11.560;2023-07-28T10:54:19;0.43;;;0.30;;
13457;SDS011;6801;53.018;11.560;2023-07-28T10:56:46;0.50;;;0.32;;
13457;SDS011;6801;53.018;11.560;2023-07-28T10:59:14;0.50;;;0.40;;
13457;SDS011;6801;53.018;11.560;2023-07-28T11:01:43;0.95;;;0.30;;
13457;SDS011;6801;53.018;11.560;2023-07-28T11:04:10;0.90;;;0.73;;
13457;SDS011;6801;53.018;11.560;2023-07-28T11:06:40;0.55;;;0.47;;
13457;SDS011;6801;53.018;11.560;2023-07-28T11:09:09;1.05;;;0.50;;
13457;SDS011;6801;53.018;11.560;2023-07-28T11:11:36;3.13;;;0.70;;
13457;SDS011;6801;53.018;11.560;2023-07-28T11:14:04;1.02;;;0.63;;
13457;SDS011;6801;53.018;11.560;2023-07-28T11:16:33;3.42;;;0.77;;
13457;SDS011;6801;53.018;11.560;2023-07-28T11:19:03;2.03;;;0.85;;
13457;SDS011;6801;53.018;11.560;2023-07-28T11:21:35;0.40;;;0.40;;
13457;SDS011;6801;53.018;11.560;2023-07-28T11:24:02;0.93;;;0.55;;
13457;SDS011;6801;53.018;11.560;2023-07-28T11:26:30;1.08;;;0.57;;
13457;SDS011;6801;53.018;11.560;2023-07-28T11:28:57;1.60;;;0.88;;
13457;SDS011;6801;53.018;11.560;2023-07-28T11:31:26;2.78;;;0.80;;
13457;SDS011;6801;53.018;11.560;2023-07-28T11:33:53;1.27;;;0.73;;
13457;SDS011;6801;53.018;11.560;2023-07-28T11:36:24;0.68;;;0.60;;
13457;SDS011;6801;53.018;11.560;2023-07-28T11:38:53;1.45;;;0.70;;
13457;SDS011;6801;53.018;11.560;2023-07-28T11:41:21;1.50;;;1.25;;
13457;SDS011;6801;53.018;11.560;2023-07-28T11:43:49;1.17;;;0.80;;
13457;SDS011;6801;53.018;11.560;2023-07-28T11:46:32;0.80;;;0.80;;
13457;SDS011;6801;53.018;11.560;2023-07-28T11:49:09;1.50;;;0.90;;
13457;SDS011;6801;53.018;11.560;2023-07-28T11:51:39;0.60;;;0.57;;
13457;SDS011;6801;53.018;11.560;2023-07-28T11:54:10;0.80;;;0.70;;
13457;SDS011;6801;53.018;11.560;2023-07-28T11:56:39;1.10;;;0.95;;
13457;SDS011;6801;53.018;11.560;2023-07-28T11:59:06;1.17;;;0.50;;
13457;SDS011;6801;53.018;11.560;2023-07-28T12:01:33;1.50;;;0.57;;
13457;SDS011;6801;53.018;11.560;2023-07-28T12:09:32;1.15;;;1.00;;
13457;SDS011;6801;53.018;11.560;2023-07-28T12:11:59;1.85;;;0.70;;
13457;SDS011;6801;53.018;11.560;2023-07-28T12:14:35;1.85;;;1.00;;
13457;SDS011;6801;53.018;11.560;2023-07-28T12:17:03;0.95;;;0.65;;
13457;SDS011;6801;53.018;11.560;2023-07-28T12:19:40;1.45;;;0.70;;
13457;SDS011;6801;53.018;11.560;2023-07-28T12:24:37;0.90;;;0.80;;
13457;SDS011;6801;53.018;11.560;2023-07-28T12:27:04;1.27;;;0.85;;
13457;SDS011;6801;53.018;11.560;2023-07-28T12:29:36;0.77;;;0.70;;
13457;SDS011;6801;53.018;11.560;2023-07-28T12:32:03;1.10;;;0.60;;
13457;SDS011;6801;53.018;11.560;2023-07-28T12:34:31;1.08;;;0.93;;
13457;SDS011;6801;53.018;11.560;2023-07-28T12:36:59;0.68;;;0.50;;
13457;SDS011;6801;53.018;11.560;2023-07-28T12:39:28;0.60;;;0.60;;
13457;SDS011;6801;53.018;11.560;2023-07-28T12:41:55;0.65;;;0.52;;
13457;SDS011;6801;53.018;11.560;2023-07-28T12:44:22;1.00;;;0.65;;
13457;SDS011;6801;53.018;11.560;2023-07-28T12:46:49;0.75;;;0.40;;
13457;SDS011;6801;53.018;11.560;2023-07-28T12:49:16;0.52;;;0.50;;
13457;SDS011;6801;53.018;11.560;2023-07-28T12:51:44;1.35;;;0.60;;
13457;SDS011;6801;53.018;11.560;2023-07-28T12:54:11;0.82;;;0.57;;
13457;SDS011;6801;53.018;11.560;2023-07-28T12:56:40;0.52;;;0.45;;
13457;SDS011;6801;53.018;11.560;2023-07-28T12:59:07;1.80;;;0.50;;
13457;SDS011;6801;53.018;11.560;2023-07-28T13:01:35;0.63;;;0.50;;
13457;SDS011;6801;53.018;11.560;2023-07-28T13:04:03;1.10;;;0.67;;
13457;SDS011;6801;53.018;11.560;2023-07-28T13:06:30;0.47;;;0.40;;
13457;SDS011;6801;53.018;11.560;2023-07-28T13:08:57;2.20;;;0.70;;
13457;SDS011;6801;53.018;11.560;2023-07-28T13:11:24;0.60;;;0.52;;
13457;SDS011;6801;53.018;11.560;2023-07-28T13:13:53;0.98;;;0.60;;
13457;SDS011;6801;53.018;11.560;2023-07-28T13:16:20;2.75;;;0.80;;
13457;SDS011;6801;53.018;11.560;2023-07-28T13:18:47;0.57;;;0.50;;
13457;SDS011;6801;53.018;11.560;2023-07-28T13:21:14;0.73;;;0.63;;
13457;SDS011;6801;53.018;11.560;2023-07-28T13:23:41;2.00;;;0.63;;
13457;SDS011;6801;53.018;11.560;2023-07-28T13:26:08;0.80;;;0.63;;
13457;SDS011;6801;53.018;11.560;2023-07-28T13:28:35;0.80;;;0.55;;
13457;SDS011;6801;53.018;11.560;2023-07-28T13:31:04;3.25;;;0.73;;
13457;SDS011;6801;53.018;11.560;2023-07-28T13:33:31;1.20;;;0.75;;
13457;SDS011;6801;53.018;11.560;2023-07-28T13:35:58;1.17;;;0.60;;
13457;SDS011;6801;53.018;11.560;2023-07-28T13:38:25;1.58;;;0.70;;
13457;SDS011;6801;53.018;11.560;2023-07-28T13:40:52;1.85;;;0.73;;
13457;SDS011;6801;53.018;11.560;2023-07-28T13:43:19;0.40;;;0.40;;
13457;SDS011;6801;53.018;11.560;2023-07-28T13:45:46;0.50;;;0.50;;
13457;SDS011;6801;53.018;11.560;2023-07-28T13:48:14;1.20;;;0.70;;
13457;SDS011;6801;53.018;11.560;2023-07-28T13:50:41;1.13;;;0.52;;
13457;SDS011;6801;53.018;11.560;2023-07-28T13:53:09;0.80;;;0.70;;
13457;SDS011;6801;53.018;11.560;2023-07-28T13:55:36;2.88;;;0.40;;
13457;SDS011;6801;53.018;11.560;2023-07-28T13:58:04;0.63;;;0.57;;
13457;SDS011;6801;53.018;11.560;2023-07-28T14:00:31;1.27;;;0.60;;
13457;SDS011;6801;53.018;11.560;2023-07-28T14:02:58;0.45;;;0.40;;
13457;SDS011;6801;53.018;11.560;2023-07-28T14:05:27;0.98;;;0.60;;
13457;SDS011;6801;53.018;11.560;2023-07-28T14:07:54;2.03;;;0.68;;
13457;SDS011;6801;53.018;11.560;2023-07-28T14:10:21;0.43;;;0.40;;
13457;SDS011;6801;53.018;11.560;2023-07-28T14:12:49;0.70;;;0.40;;
13457;SDS011;6801;53.018;11.560;2023-07-28T14:15:16;0.20;;;0.20;;
13457;SDS011;6801;53.018;11.560;2023-07-28T14:17:43;0.50;;;0.40;;
13457;SDS011;6801;53.018;11.560;2023-07-28T14:20:10;0.57;;;0.40;;
13457;SDS011;6801;53.018;11.560;2023-07-28T14:22:39;0.57;;;0.50;;
13457;SDS011;6801;53.018;11.560;2023-07-28T14:25:06;0.55;;;0.43;;
13457;SDS011;6801;53.018;11.560;2023-07-28T14:27:33;0.85;;;0.60;;
13457;SDS011;6801;53.018;11.560;2023-07-28T14:30:00;1.05;;;0.50;;
13457;SDS011;6801;53.018;11.560;2023-07-28T14:32:27;2.20;;;0.75;;
13457;SDS011;6801;53.018;11.560;2023-07-28T14:34:54;1.02;;;0.55;;
13457;SDS011;6801;53.018;11.560;2023-07-28T14:37:21;0.80;;;0.57;;
13457;SDS011;6801;53.018;11.560;2023-07-28T14:39:50;1.45;;;0.63;;
13457;SDS011;6801;53.018;11.560;2023-07-28T14:42:18;0.40;;;0.40;;
13457;SDS011;6801;53.018;11.560;2023-07-28T14:44:45;0.82;;;0.60;;
13457;SDS011;6801;53.018;11.560;2023-07-28T14:47:12;1.00;;;0.80;;
13457;SDS011;6801;53.018;11.560;2023-07-28T14:49:39;1.83;;;0.80;;
13457;SDS011;6801;53.018;11.560;2023-07-28T14:52:06;1.65;;;0.68;;
13457;SDS011;6801;53.018;11.560;2023-07-28T14:54:33;2.15;;;0.80;;
13457;SDS011;6801;53.018;11.560;2023-07-28T14:57:02;2.13;;;0.75;;
13457;SDS011;6801;53.018;11.560;2023-07-28T14:59:29;1.27;;;0.70;;
13457;SDS011;6801;53.018;11.560;2023-07-28T15:01:56;1.40;;;0.80;;
13457;SDS011;6801;53.018;11.560;2023-07-28T15:04:23;3.40;;;0.95;;
13457;SDS011;6801;53.018;11.560;2023-07-28T15:06:50;1.00;;;0.80;;
13457;SDS011;6801;53.018;11.560;2023-07-28T15:09:17;1.95;;;0.60;;